Time;durP1;ratioP1;P1;durP2;ratioP2;P2;SDS_P1;SDS_P2;PMS_P1;PMS_P2;Temp;Humidity;BMP_temperature;BMP_pressure;BME280_temperature;BME280_humidity;BME280_pressure;Samples;Min_cycle;Max_cycle;Signal;HPM_P1;HPM_P2
2022/11/25 00:02:22;;;;;;;0.97;0.97;;;0.90;99.90;2.10;96809.00;;;;5096970;28;20975;-70
2022/11/25 00:05:10;;;;;;;1.27;1.17;;;1.10;99.90;2.20;96814.00;;;;5088889;28;20921;-70
2022/11/25 00:07:59;;;;;;;2.03;1.03;;;1.10;99.90;2.00;96804.00;;;;5084144;28;20437;-70
2022/11/25 00:10:48;;;;;;;2.13;1.17;;;1.40;99.90;2.10;96805.00;;;;5096164;28;20449;-70
2022/11/25 00:13:38;;;;;;;1.80;1.10;;;1.20;99.90;2.20;96815.00;;;;5099496;28;20438;-69
2022/11/25 00:16:27;;;;;;;1.23;1.13;;;1.10;99.90;2.00;96821.00;;;;5094143;28;20424;-69
2022/11/25 00:19:17;;;;;;;0.90;0.90;;;1.00;99.90;2.00;96820.00;;;;5089960;28;20425;-69
2022/11/25 00:22:06;;;;;;;1.20;1.10;;;1.10;99.90;2.00;96823.00;;;;5089091;28;20911;-69
2022/11/25 00:24:54;;;;;;;3.47;1.00;;;1.10;99.90;2.10;96826.00;;;;5088035;28;20425;-70
2022/11/25 00:27:43;;;;;;;1.17;0.83;;;1.10;99.90;2.10;96828.00;;;;5084306;28;20418;-70
2022/11/25 00:30:32;;;;;;;1.60;1.17;;;1.00;99.90;1.90;96818.00;;;;5090010;28;20483;-69
2022/11/25 00:33:20;;;;;;;1.10;1.00;;;0.90;99.90;2.10;96815.00;;;;5086870;28;20453;-70
2022/11/25 00:36:16;;;;;;;0.80;0.80;;;1.10;99.90;2.10;96813.00;;;;5086149;28;20426;-69
2022/11/25 00:39:07;;;;;;;3.07;1.50;;;0.90;99.90;1.80;96819.00;;;;5089641;28;20433;-70
2022/11/25 00:45:02;;;;;;;2.30;1.20;;;1.00;99.90;1.90;96826.00;;;;5080365;28;20440;-69
2022/11/25 00:47:54;;;;;;;1.77;0.80;;;1.20;99.90;1.80;96817.00;;;;5083402;28;20430;-69
2022/11/25 00:50:43;;;;;;;1.17;1.07;;;0.90;99.90;1.30;96815.00;;;;5089401;28;20530;-69
2022/11/25 00:53:33;;;;;;;1.33;0.87;;;0.80;99.90;1.60;96819.00;;;;5089668;28;20445;-69
2022/11/25 00:56:22;;;;;;;1.07;1.00;;;0.70;99.90;1.80;96816.00;;;;5087823;28;20480;-69
2022/11/25 00:59:11;;;;;;;1.27;0.90;;;0.50;99.90;1.80;96809.00;;;;5088425;28;20426;-69
2022/11/25 01:01:59;;;;;;;0.80;0.80;;;0.70;99.90;1.40;96819.00;;;;5088411;28;20436;-69
2022/11/25 01:04:48;;;;;;;0.93;0.80;;;0.40;99.90;1.40;96816.00;;;;5083665;28;20422;-70
2022/11/25 01:07:37;;;;;;;0.83;0.77;;;0.70;99.90;1.60;96808.00;;;;5078482;28;20553;-70
2022/11/25 01:10:27;;;;;;;0.77;0.63;;;0.50;99.90;1.60;96818.00;;;;5089361;28;20502;-69
2022/11/25 01:13:16;;;;;;;1.47;1.23;;;0.70;99.90;1.70;96821.00;;;;5089839;28;20446;-70
2022/11/25 01:16:06;;;;;;;3.10;0.90;;;0.70;99.90;1.50;96818.00;;;;5087515;28;20444;-69
2022/11/25 01:18:55;;;;;;;0.97;0.87;;;0.70;99.90;1.70;96826.00;;;;5083437;28;20441;-69
2022/11/25 01:21:43;;;;;;;0.60;0.60;;;0.90;99.90;1.80;96824.00;;;;5087999;28;20483;-69
2022/11/25 01:24:33;;;;;;;1.93;0.90;;;0.80;99.90;2.00;96829.00;;;;5088482;28;20503;-69
2022/11/25 01:27:23;;;;;;;0.80;0.80;;;0.80;99.90;2.00;96822.00;;;;5088620;28;21097;-69
2022/11/25 01:30:13;;;;;;;1.17;1.13;;;0.90;99.90;1.20;96830.00;;;;5085890;28;20465;-69
2022/11/25 01:33:02;;;;;;;0.97;0.87;;;0.70;99.90;1.40;96827.00;;;;5088849;28;20529;-70
2022/11/25 01:35:50;;;;;;;1.27;0.87;;;0.60;99.90;1.60;96834.00;;;;5088256;28;20421;-69
2022/11/25 01:38:40;;;;;;;0.83;0.83;;;0.70;99.90;1.30;96834.00;;;;5089062;28;20479;-69
2022/11/25 01:41:32;;;;;;;0.77;0.77;;;0.60;99.90;1.20;96827.00;;;;5088943;28;20422;-69
2022/11/25 01:44:24;;;;;;;0.93;0.77;;;;;0.50;96836.00;;;;5089491;28;20911;-69
2022/11/25 01:47:16;;;;;;;1.03;0.70;;;;;0.80;96840.00;;;;5095539;28;20433;-69
2022/11/25 01:50:06;;;;;;;1.03;0.80;;;;;1.30;96851.00;;;;5089116;28;20818;-69
2022/11/25 01:52:56;;;;;;;0.40;0.40;;;;;1.40;96844.00;;;;5083523;28;20948;-69
2022/11/25 01:55:48;;;;;;;0.70;0.70;;;;;1.30;96853.00;;;;5088416;28;20417;-69
2022/11/25 01:58:38;;;;;;;1.37;0.70;;;;;1.00;96854.00;;;;5088053;28;20429;-69
2022/11/25 02:01:29;;;;;;;0.97;0.97;;;;;1.30;96855.00;;;;5091472;28;20440;-69
2022/11/25 02:04:18;;;;;;;1.50;0.87;;;;;1.20;96869.00;;;;5090004;28;20437;-69
2022/11/25 02:07:11;;;;;;;1.17;1.00;;;;;1.00;96865.00;;;;5095645;28;20424;-69
2022/11/25 02:10:01;;;;;;;2.07;0.80;;;;;1.10;96871.00;;;;5100322;28;20467;-69
2022/11/25 02:12:50;;;;;;;3.23;1.83;;;;;1.10;96863.00;;;;5093311;28;20441;-69
2022/11/25 02:15:39;;;;;;;1.47;1.00;;;;;1.40;96863.00;;;;5092417;28;20452;-69
2022/11/25 02:18:30;;;;;;;0.70;0.70;;;;;1.60;96851.00;;;;5091449;28;20438;-69
2022/11/25 02:21:22;;;;;;;3.50;1.60;;;;;1.50;96860.00;;;;5091515;28;20433;-69
2022/11/25 02:24:15;;;;;;;2.57;1.70;;;;;1.10;96866.00;;;;5092412;28;20433;-69
2022/11/25 02:27:05;;;;;;;5.80;2.70;;;;;0.80;96872.00;;;;5094496;28;20433;-69
2022/11/25 02:29:55;;;;;;;9.63;2.73;;;;;1.10;96874.00;;;;5091837;28;20430;-69
2022/11/25 02:32:45;;;;;;;10.03;3.07;;;;;1.30;96872.00;;;;5091095;28;20491;-69
2022/11/25 02:35:35;;;;;;;3.77;1.63;;;;;0.90;96874.00;;;;5091897;28;20487;-69
2022/11/25 02:38:28;;;;;;;5.77;1.67;;;;;1.10;96861.00;;;;5079747;28;20430;-69
2022/11/25 02:41:20;;;;;;;1.43;1.20;;;;;1.20;96871.00;;;;5091585;28;20430;-69
2022/11/25 02:44:10;;;;;;;2.60;1.37;;;;;0.80;96872.00;;;;5091857;28;20461;-69
2022/11/25 02:46:59;;;;;;;2.00;1.80;;;;;0.30;96870.00;;;;5092011;28;20457;-70
2022/11/25 02:49:48;;;;;;;2.93;1.20;;;;;0.50;96875.00;;;;5091356;28;20844;-69
2022/11/25 02:52:37;;;;;;;3.27;1.30;;;;;0.70;96881.00;;;;5091519;28;20539;-69
2022/11/25 02:55:26;;;;;;;0.73;0.73;;;0.10;99.90;0.90;96891.00;;;;5090150;28;21215;-69
2022/11/25 02:58:16;;;;;;;3.23;1.63;;;-0.10;99.90;1.10;96888.00;;;;5090502;28;20948;-69
2022/11/25 03:01:06;;;;;;;1.80;0.93;;;-0.10;99.90;1.30;96894.00;;;;5092325;28;20429;-69
2022/11/25 03:03:55;;;;;;;1.47;1.33;;;0.10;99.90;0.70;96881.00;;;;5091209;28;20472;-70
2022/11/25 03:06:43;;;;;;;4.27;1.63;;;0.10;99.90;0.20;96887.00;;;;5090320;28;20532;-70
2022/11/25 03:09:32;;;;;;;0.87;0.70;;;0.30;99.90;0.10;96884.00;;;;5090808;28;20433;-69
2022/11/25 03:12:21;;;;;;;3.67;1.83;;;0.30;99.90;0.60;96881.00;;;;5089818;28;20469;-69
2022/11/25 03:15:11;;;;;;;1.90;1.37;;;-0.10;99.90;0.70;96909.00;;;;5090049;28;20437;-69
2022/11/25 03:18:01;;;;;;;3.33;1.03;;;-0.20;99.90;0.90;96910.00;;;;5090556;28;20413;-69
2022/11/25 03:20:52;;;;;;;2.87;1.67;;;-0.30;99.90;0.70;96896.00;;;;5091248;28;20429;-69
2022/11/25 03:23:41;;;;;;;0.93;0.77;;;-0.10;99.90;0.70;96910.00;;;;5083010;28;20952;-69
2022/11/25 03:26:30;;;;;;;2.13;1.10;;;-0.40;99.90;0.80;96901.00;;;;5091777;28;20446;-69
2022/11/25 03:29:19;;;;;;;1.17;1.07;;;-0.10;99.90;0.50;96903.00;;;;5090384;28;20421;-69
2022/11/25 03:32:07;;;;;;;1.40;1.30;;;-0.10;99.90;0.40;96908.00;;;;5079130;28;20868;-69
2022/11/25 03:34:58;;;;;;;1.33;1.03;;;-0.40;99.90;0.40;96907.00;;;;5090736;28;20432;-69
2022/11/25 03:37:47;;;;;;;2.23;1.00;;;-0.30;99.90;0.70;96910.00;;;;5090395;28;20433;-69
2022/11/25 03:40:36;;;;;;;0.70;0.70;;;-0.20;99.90;0.40;96920.00;;;;5090702;28;20459;-69
2022/11/25 03:43:24;;;;;;;1.03;1.03;;;-0.20;99.90;0.30;96911.00;;;;5088896;28;20445;-69
2022/11/25 03:46:13;;;;;;;1.07;0.97;;;-0.20;99.90;0.70;96908.00;;;;5089724;28;20923;-69
2022/11/25 03:49:02;;;;;;;0.80;0.80;;;-0.10;99.90;0.60;96913.00;;;;5089286;28;21158;-69
2022/11/25 03:51:52;;;;;;;0.63;0.63;;;-0.30;99.90;0.80;96915.00;;;;5089651;28;20511;-69
2022/11/25 03:54:41;;;;;;;0.60;0.60;;;-0.20;99.90;0.70;96918.00;;;;5083486;28;20429;-69
2022/11/25 03:57:29;;;;;;;0.73;0.73;;;-0.40;99.90;0.50;96925.00;;;;5087481;28;20901;-69
2022/11/25 04:00:18;;;;;;;0.50;0.50;;;0.00;99.90;0.20;96914.00;;;;5090499;28;20851;-70
2022/11/25 04:03:07;;;;;;;5.93;1.23;;;-0.20;99.90;0.60;96932.00;;;;5086608;28;20441;-69
2022/11/25 04:05:56;;;;;;;0.50;0.50;;;-0.50;99.90;0.90;96916.00;;;;5089231;28;20449;-69
2022/11/25 04:08:46;;;;;;;1.13;0.80;;;-0.20;99.90;0.80;96920.00;;;;5089965;28;20495;-70
2022/11/25 04:14:41;;;;;;;1.10;1.00;;;-0.40;99.90;0.40;96924.00;;;;5088983;28;20512;-69
2022/11/25 04:17:30;;;;;;;0.60;0.60;;;-0.30;99.90;0.80;96932.00;;;;5089901;28;20475;-69
2022/11/25 04:20:19;;;;;;;1.07;0.70;;;-0.20;99.90;0.80;96924.00;;;;5088766;28;21070;-69
2022/11/25 04:23:08;;;;;;;0.93;0.80;;;-0.40;99.90;0.60;96907.00;;;;5089887;28;20502;-69
2022/11/25 04:25:58;;;;;;;0.80;0.80;;;0.00;99.90;0.60;96910.00;;;;5096933;28;20430;-68
2022/11/25 04:28:47;;;;;;;0.80;0.80;;;0.00;99.90;0.50;96904.00;;;;5105096;28;20478;-69
2022/11/25 04:31:36;;;;;;;0.63;0.63;;;-0.30;99.90;0.20;96899.00;;;;5090886;28;20485;-69
2022/11/25 04:34:25;;;;;;;1.17;0.90;;;0.10;99.90;0.30;96900.00;;;;5093056;28;20418;-69
2022/11/25 04:37:14;;;;;;;0.93;0.93;;;-0.40;99.90;0.50;96892.00;;;;5089706;28;20437;-69
2022/11/25 04:40:03;;;;;;;0.87;0.87;;;-0.20;99.90;0.20;96898.00;;;;5089904;28;20421;-69
2022/11/25 04:42:53;;;;;;;0.60;0.60;;;-0.50;99.90;0.10;96901.00;;;;5087420;28;20450;-69
2022/11/25 04:45:47;;;;;;;0.50;0.50;;;-0.40;99.90;0.10;96891.00;;;;5085301;28;20444;-69
2022/11/25 04:48:55;;;;;;;0.87;0.87;;;-0.20;99.90;0.20;96889.00;;;;5088580;28;20948;-69
2022/11/25 04:51:44;;;;;;;0.63;0.63;;;-0.40;99.90;0.10;96889.00;;;;5089550;28;20485;-68
2022/11/25 04:54:33;;;;;;;3.33;1.13;;;0.00;99.90;0.50;96891.00;;;;5099739;28;21196;-69
2022/11/25 04:57:22;;;;;;;0.90;0.77;;;-0.70;99.90;0.10;96890.00;;;;5089259;28;20410;-69
2022/11/25 05:00:14;;;;;;;1.10;0.90;;;-0.70;99.90;-0.10;96890.00;;;;5098305;28;20417;-69
2022/11/25 05:03:03;;;;;;;0.70;0.70;;;-0.60;99.90;-0.10;96884.00;;;;5094894;28;20505;-69
2022/11/25 05:05:51;;;;;;;0.60;0.60;;;-0.90;99.90;0.00;96887.00;;;;5089017;28;20499;-69
2022/11/25 05:08:40;;;;;;;0.93;0.70;;;-0.70;99.90;0.00;96887.00;;;;5089195;28;20457;-69
2022/11/25 05:11:29;;;;;;;0.93;0.87;;;-0.90;99.90;0.20;96887.00;;;;5093112;28;20522;-69
2022/11/25 05:14:17;;;;;;;0.60;0.60;;;-0.90;99.90;0.00;96895.00;;;;5088054;28;21236;-69
2022/11/25 05:17:13;;;;;;;1.93;1.00;;;-0.70;99.90;-0.10;96888.00;;;;5082653;28;20949;-69
2022/11/25 05:20:03;;;;;;;0.87;0.87;;;-0.50;99.90;-0.10;96891.00;;;;5087610;28;20425;-70
2022/11/25 05:22:52;;;;;;;1.10;1.00;;;-0.90;99.90;0.00;96881.00;;;;5089089;28;20879;-70
2022/11/25 05:25:40;;;;;;;0.83;0.83;;;-1.10;99.90;0.20;96892.00;;;;5090737;28;20850;-69
2022/11/25 05:28:30;;;;;;;0.53;0.53;;;-0.80;99.90;0.10;96895.00;;;;5086492;28;21008;-69
2022/11/25 05:31:19;;;;;;;1.87;1.10;;;-1.00;99.90;-0.30;96893.00;;;;5085741;28;20430;-69
2022/11/25 05:34:09;;;;;;;1.23;1.13;;;-0.90;99.90;-0.20;96903.00;;;;5083340;28;21304;-69
2022/11/25 05:36:58;;;;;;;0.93;0.93;;;-0.70;99.90;-0.30;96895.00;;;;5090722;28;20463;-69
2022/11/25 05:39:47;;;;;;;1.53;1.37;;;-0.80;99.90;-0.50;96902.00;;;;5094326;28;20433;-69
2022/11/25 05:42:35;;;;;;;2.43;2.23;;;-1.00;99.90;-0.20;96910.00;;;;5091647;28;20483;-69
2022/11/25 05:45:24;;;;;;;1.87;1.77;;;-1.00;99.90;0.00;96917.00;;;;5091035;28;20421;-69
2022/11/25 05:48:13;;;;;;;1.53;1.30;;;-0.80;99.90;-0.70;96917.00;;;;5088019;28;20437;-69
2022/11/25 05:51:05;;;;;;;2.20;2.07;;;-0.80;99.90;-0.60;96923.00;;;;5088600;28;20437;-69
2022/11/25 05:53:54;;;;;;;1.57;1.47;;;-1.00;99.90;-0.30;96928.00;;;;5092792;28;20487;-69
2022/11/25 05:56:43;;;;;;;1.17;1.07;;;-1.10;99.90;-0.40;96930.00;;;;5082871;28;20441;-69
2022/11/25 05:59:31;;;;;;;1.47;1.23;;;-1.10;99.90;-0.30;96932.00;;;;5098283;28;20465;-69
2022/11/25 06:02:20;;;;;;;1.40;1.33;;;-1.10;99.90;-0.20;96939.00;;;;5099263;28;20440;-69
2022/11/25 06:05:09;;;;;;;1.33;0.73;;;-0.90;99.90;-0.30;96946.00;;;;5085435;28;20426;-69
2022/11/25 06:07:59;;;;;;;1.20;1.10;;;-1.00;99.90;0.10;96949.00;;;;5087173;28;20554;-69
2022/11/25 06:10:48;;;;;;;2.47;1.37;;;-0.90;99.90;0.00;96953.00;;;;5100891;28;20960;-69
2022/11/25 06:13:37;;;;;;;3.27;1.40;;;-0.70;99.90;-0.10;96947.00;;;;5092459;28;20469;-69
2022/11/25 06:16:27;;;;;;;2.20;1.87;;;-0.90;99.90;0.10;96951.00;;;;5099071;28;20443;-69
2022/11/25 06:19:15;;;;;;;2.57;1.87;;;-1.00;99.90;-0.10;96941.00;;;;5091538;28;20418;-69
2022/11/25 06:22:04;;;;;;;3.33;2.37;;;-0.80;99.90;-0.60;96944.00;;;;5086224;28;20557;-69
2022/11/25 06:24:54;;;;;;;2.33;2.10;;;-1.00;99.90;-0.50;96947.00;;;;5091432;28;20495;-69
2022/11/25 06:27:46;;;;;;;6.37;2.27;;;-0.90;99.90;-0.50;96930.00;;;;5090904;28;20422;-69
2022/11/25 06:30:55;;;;;;;3.03;1.77;;;-1.20;99.90;-0.80;96934.00;;;;5086460;28;20413;-69
2022/11/25 06:33:47;;;;;;;4.13;1.80;;;-1.10;99.90;-1.00;96948.00;;;;5091939;28;20476;-68
2022/11/25 06:36:36;;;;;;;3.13;1.17;;;-1.30;99.90;-1.00;96937.00;;;;5080427;28;20433;-69
2022/11/25 06:39:26;;;;;;;3.47;2.50;;;-0.90;99.90;-0.30;96945.00;;;;5091401;28;20561;-69
2022/11/25 06:42:16;;;;;;;3.60;3.23;;;-1.20;99.90;-0.40;96957.00;;;;5091585;28;20510;-69
2022/11/25 06:45:06;;;;;;;5.00;2.00;;;-1.20;99.90;-0.20;96952.00;;;;5091735;28;20495;-69
2022/11/25 06:47:55;;;;;;;2.20;2.07;;;-1.00;99.90;0.00;96958.00;;;;5089307;28;20985;-69
2022/11/25 06:50:43;;;;;;;2.20;1.77;;;-0.90;99.90;0.10;96961.00;;;;5090131;28;20502;-69
2022/11/25 06:53:33;;;;;;;2.53;2.27;;;-0.80;99.90;0.30;96962.00;;;;5089242;22;20493;-85
2022/11/25 06:56:24;;;;;;;1.70;1.60;;;0.00;99.90;0.60;96966.00;;;;5074530;28;20815;-86
2022/11/25 06:59:14;;;;;;;1.03;0.97;;;-0.70;99.90;0.70;96971.00;;;;5074750;28;20458;-83
2022/11/25 07:02:04;;;;;;;1.83;1.43;;;0.10;99.90;0.90;96977.00;;;;5076276;28;20803;-83
2022/11/25 07:04:52;;;;;;;1.50;1.40;;;0.40;99.90;0.70;96974.00;;;;5087223;28;20429;-84
2022/11/25 07:07:41;;;;;;;2.53;1.93;;;-0.40;99.90;0.50;96976.00;;;;5061851;28;20481;-83
2022/11/25 07:10:30;;;;;;;1.43;1.33;;;-0.10;99.90;0.20;96983.00;;;;5065701;28;20809;-84
2022/11/25 07:13:18;;;;;;;0.60;0.60;;;0.20;99.90;0.20;96986.00;;;;5064167;28;21085;-84
2022/11/25 07:16:11;;;;;;;0.87;0.87;;;-0.70;99.90;0.60;96992.00;;;;5056162;28;20476;-83
2022/11/25 07:19:01;;;;;;;1.00;0.87;;;0.50;99.90;0.80;97001.00;;;;5070175;28;20819;-85
2022/11/25 07:21:49;;;;;;;1.30;1.20;;;-0.40;99.90;1.10;97008.00;;;;5064512;28;20905;-83
2022/11/25 07:24:38;;;;;;;1.50;1.03;;;0.40;99.90;1.00;97019.00;;;;5066244;28;20439;-85
2022/11/25 07:27:27;;;;;;;6.60;1.30;;;-0.10;99.90;0.90;97004.00;;;;5064500;28;20529;-85
2022/11/25 07:30:16;;;;;;;2.20;1.17;;;0.60;99.90;0.60;97010.00;;;;5076936;28;20704;-83
2022/11/25 07:33:26;;;;;;;1.00;0.93;;;0.20;99.90;0.70;97011.00;;;;5073538;28;20458;-83
2022/11/25 07:36:15;;;;;;;1.87;1.30;;;0.30;99.90;1.10;97007.00;;;;5070738;28;20845;-83
2022/11/25 07:39:07;;;;;;;4.87;1.23;;;0.50;99.90;0.60;97008.00;;;;5074706;28;21032;-85
2022/11/25 07:41:55;;;;;;;0.83;0.83;;;-0.20;99.90;0.70;97012.00;;;;5082979;28;20834;-85
2022/11/25 07:44:44;;;;;;;1.50;1.40;;;0.70;99.90;1.10;97012.00;;;;5068395;28;20997;-83
2022/11/25 07:47:34;;;;;;;1.47;1.37;;;0.60;99.90;0.80;97016.00;;;;5072695;28;20508;-85
2022/11/25 07:50:24;;;;;;;1.33;1.23;;;0.70;99.90;1.40;97020.00;;;;5075740;28;21012;-85
2022/11/25 07:53:13;;;;;;;2.10;1.30;;;0.10;99.90;0.80;97010.00;;;;5071716;28;20477;-84
2022/11/25 07:56:02;;;;;;;1.40;1.30;;;0.50;99.90;0.80;97012.00;;;;5075026;28;20434;-84
2022/11/25 07:58:51;;;;;;;1.70;0.80;;;0.70;99.90;0.90;97008.00;;;;5057465;28;20474;-83
2022/11/25 08:01:40;;;;;;;0.93;0.87;;;0.80;99.90;1.20;97013.00;;;;5073208;28;20442;-85
2022/11/25 08:04:29;;;;;;;1.60;1.50;;;-0.20;99.90;1.60;97012.00;;;;5073797;28;20854;-84
2022/11/25 08:07:21;;;;;;;3.63;1.93;;;0.70;99.90;1.70;97026.00;;;;5064825;28;20497;-85
2022/11/25 08:10:11;;;;;;;3.87;1.00;;;1.20;99.90;1.70;97019.00;;;;5062686;28;20426;-83
2022/11/25 08:13:01;;;;;;;0.93;0.93;;;0.80;99.90;1.60;97022.00;;;;5065334;28;20975;-85
2022/11/25 08:15:50;;;;;;;1.57;1.10;;;1.20;99.90;1.90;97028.00;;;;5066776;28;21015;-84
2022/11/25 08:18:39;;;;;;;1.40;0.80;;;0.60;99.90;1.90;97022.00;;;;5065777;28;20469;-85
2022/11/25 08:21:29;;;;;;;2.50;2.30;;;1.10;99.90;2.00;97038.00;;;;5062535;28;20874;-85
2022/11/25 08:24:21;;;;;;;1.43;1.33;;;1.00;99.90;2.00;97025.00;;;;5052621;28;20502;-83
2022/11/25 08:27:09;;;;;;;1.13;0.97;;;1.20;99.90;1.70;97029.00;;;;5067112;28;20497;-82
2022/11/25 08:29:58;;;;;;;0.97;0.83;;;0.80;99.90;1.80;97035.00;;;;5062202;28;20419;-83
2022/11/25 08:32:47;;;;;;;2.27;1.33;;;1.70;99.90;2.10;97031.00;;;;5068937;28;20419;-85
2022/11/25 08:35:36;;;;;;;1.13;1.10;;;1.30;99.90;2.20;97037.00;;;;5080137;28;20519;-82
2022/11/25 08:38:26;;;;;;;1.03;0.93;;;0.80;99.90;2.20;97039.00;;;;5059947;28;20447;-84
2022/11/25 08:41:20;;;;;;;2.83;1.97;;;1.60;99.90;2.60;97042.00;;;;5058241;28;20868;-83
2022/11/25 08:44:12;;;;;;;1.30;1.20;;;2.00;99.90;2.70;97027.00;;;;5048877;28;20983;-83
2022/11/25 08:47:01;;;;;;;1.97;1.30;;;1.40;99.90;2.80;97027.00;;;;5051415;28;20435;-83
2022/11/25 08:49:51;;;;;;;2.43;1.73;;;1.90;99.90;3.00;97042.00;;;;5062877;28;20427;-86
2022/11/25 08:52:40;;;;;;;4.70;1.93;;;2.00;99.90;3.00;97029.00;;;;5071996;28;20507;-82
2022/11/25 08:55:29;;;;;;;2.67;2.43;;;2.20;99.90;3.30;97030.00;;;;5073103;28;20530;-83
2022/11/25 08:58:19;;;;;;;3.23;2.90;;;2.20;99.90;3.30;97025.00;;;;5066212;28;20458;-83
2022/11/25 09:01:09;;;;;;;3.03;2.73;;;2.50;99.90;3.60;97027.00;;;;5055753;28;20901;-82
2022/11/25 09:03:58;;;;;;;3.00;2.70;;;2.60;99.90;4.00;97038.00;;;;5062766;28;20451;-83
2022/11/25 09:06:47;;;;;;;3.83;2.63;;;2.80;99.90;4.10;97041.00;;;;5066499;28;20914;-83
2022/11/25 09:09:36;;;;;;;6.10;3.43;;;2.80;99.90;4.30;97032.00;;;;5054689;28;20423;-84
2022/11/25 09:12:25;;;;;;;5.10;3.20;;;3.20;99.90;4.30;97034.00;;;;5068862;28;20430;-83
2022/11/25 09:15:15;;;;;;;4.20;3.03;;;3.10;99.90;4.60;97036.00;;;;5060573;28;20493;-84
2022/11/25 09:18:07;;;;;;;5.33;3.30;;;3.40;99.90;4.90;97039.00;;;;5064998;28;20454;-83
2022/11/25 09:20:57;;;;;;;3.10;2.90;;;3.20;99.90;5.10;97027.00;;;;5063640;28;20461;-83
2022/11/25 09:23:46;;;;;;;3.37;2.77;;;3.50;99.90;5.30;97026.00;;;;5066349;28;20419;-85
2022/11/25 09:26:38;;;;;;;4.83;3.47;;;3.40;99.90;6.10;97028.00;;;;5065610;28;20461;-83
2022/11/25 09:29:28;;;;;;;4.33;3.90;;;4.10;99.90;6.60;97031.00;;;;5065001;28;20212;-82
2022/11/25 09:32:19;;;;;;;3.43;3.13;;;4.80;99.90;6.40;97031.00;;;;5080183;28;20565;-83
2022/11/25 09:35:08;;;;;;;3.90;3.60;;;4.80;99.90;6.80;97024.00;;;;5059276;28;20212;-83
2022/11/25 09:37:56;;;;;;;6.53;3.27;;;5.00;99.90;7.00;97032.00;;;;5060192;28;20231;-84
2022/11/25 09:40:52;;;;;;;4.40;3.50;;;5.30;99.90;7.30;97035.00;;;;5074341;28;20212;-83
2022/11/25 09:47:10;;;;;;;4.33;3.23;;;5.80;99.90;7.50;97027.00;;;;5062751;28;20266;-83
2022/11/25 09:50:21;;;;;;;4.07;2.73;;;5.90;99.90;7.40;97025.00;;;;5067216;28;20569;-87
2022/11/25 09:53:26;;;;;;;3.10;2.80;;;6.10;99.90;7.80;97016.00;;;;5062625;28;20254;-83
2022/11/25 09:56:29;;;;;;;3.90;2.63;;;6.30;99.90;8.40;97019.00;;;;5071355;28;20318;-84
2022/11/25 09:59:22;;;;;;;3.63;2.50;;;6.30;99.90;8.80;97011.00;;;;5074899;28;20226;-84
2022/11/25 10:02:17;;;;;;;6.07;3.87;;;6.70;99.90;8.60;97012.00;;;;5066192;28;20200;-85
2022/11/25 10:05:16;;;;;;;3.57;2.70;;;6.90;99.90;9.30;97010.00;;;;5064774;28;20693;-84
2022/11/25 10:08:13;;;;;;;3.90;2.27;;;7.40;99.90;9.50;97002.00;;;;5070467;28;20684;-84
2022/11/25 10:11:12;;;;;;;4.20;2.87;;;7.50;99.90;9.90;97002.00;;;;5062238;28;20192;-84
2022/11/25 10:14:07;;;;;;;3.63;2.27;;;7.80;99.90;10.80;97005.00;;;;5061364;28;20712;-83
2022/11/25 10:17:05;;;;;;;2.87;2.60;;;8.90;99.90;11.40;96990.00;;;;5066008;28;20196;-83
2022/11/25 10:20:03;;;;;;;10.60;2.73;;;10.40;99.90;12.10;97003.00;;;;5070021;28;20196;-82
2022/11/25 10:22:57;;;;;;;2.80;2.13;;;11.40;99.90;12.90;96984.00;;;;5069832;28;20697;-85
2022/11/25 10:25:50;;;;;;;3.93;1.90;;;12.30;99.90;13.20;96982.00;;;;5066326;28;20197;-82
2022/11/25 10:28:41;;;;;;;4.27;1.73;;;13.10;99.90;13.60;96978.00;;;;5068102;28;20240;-84
2022/11/25 10:31:36;;;;;;;5.43;1.90;;;13.80;99.90;14.10;96977.00;;;;5069891;28;20235;-83
2022/11/25 10:34:35;;;;;;;2.33;1.50;;;14.30;99.90;15.10;96972.00;;;;5070299;28;20223;-83
2022/11/25 10:37:29;;;;;;;3.00;2.07;;;15.20;99.90;15.40;96971.00;;;;5068332;28;20208;-83
2022/11/25 10:40:19;;;;;;;1.53;1.43;;;15.50;99.90;15.00;96962.00;;;;5067680;28;20192;-84
2022/11/25 10:43:13;;;;;;;2.53;1.60;;;16.00;99.90;15.20;96966.00;;;;5069734;28;20207;-84
2022/11/25 10:46:16;;;;;;;2.83;2.53;;;16.10;99.90;15.60;96970.00;;;;5067912;28;20195;-84
2022/11/25 10:49:14;;;;;;;2.37;1.60;;;16.30;99.90;16.00;96970.00;;;;5070194;28;20309;-84
2022/11/25 10:52:13;;;;;;;3.17;1.90;;;16.60;99.90;15.70;96971.00;;;;5067120;28;20204;-84
2022/11/25 10:55:12;;;;;;;1.87;1.60;;;16.80;99.50;15.70;96966.00;;;;5067209;28;20346;-85
2022/11/25 10:58:27;;;;;;;2.70;2.20;;;16.70;98.50;16.90;96958.00;;;;5068364;28;20221;-86
2022/11/25 11:01:20;;;;;;;3.27;1.70;;;16.80;99.90;16.70;96967.00;;;;5067805;28;20526;-84
2022/11/25 11:04:16;;;;;;;2.30;2.10;;;17.30;98.60;16.10;96957.00;;;;5065935;28;20204;-85
2022/11/25 11:07:09;;;;;;;3.13;1.83;;;16.90;97.40;15.60;96949.00;;;;5069127;28;20192;-85
2022/11/25 11:10:17;;;;;;;4.97;2.43;;;16.70;97.00;14.70;96952.00;;;;5071892;28;20196;-83
2022/11/25 11:13:21;;;;;;;2.37;1.30;;;;;14.50;96938.00;;;;5073999;28;20199;-84
2022/11/25 11:16:26;;;;;;;2.80;2.13;;;;;14.50;96942.00;;;;5058170;28;20601;-83
2022/11/25 11:19:22;;;;;;;2.23;1.50;;;;;14.40;96930.00;;;;5051895;28;20229;-84
2022/11/25 11:22:23;;;;;;;2.30;1.70;;;;;14.70;96935.00;;;;5078635;28;20688;-84
2022/11/25 11:25:30;;;;;;;6.33;1.83;;;;;14.70;96932.00;;;;5059916;28;20210;-85
2022/11/25 11:28:38;;;;;;;2.77;1.80;;;;;14.40;96927.00;;;;5064530;28;20303;-85
2022/11/25 11:31:31;;;;;;;3.13;2.43;;;;;14.70;96933.00;;;;5070779;28;20701;-85
2022/11/25 11:34:37;;;;;;;2.87;1.87;;;;;14.60;96938.00;;;;5069732;28;20227;-85
2022/11/25 11:37:39;;;;;;;3.33;2.07;;;;;15.00;96941.00;;;;5058406;28;20207;-83
2022/11/25 11:40:36;;;;;;;4.33;1.73;;;;;15.20;96937.00;;;;5068682;28;20199;-85
2022/11/25 11:43:55;;;;;;;4.67;1.93;;;;;15.40;96945.00;;;;5067613;28;20262;-84
2022/11/25 11:47:04;;;;;;;3.80;1.30;;;;;15.90;96937.00;;;;5068540;28;20341;-85
2022/11/25 11:50:13;;;;;;;4.37;2.37;;;;;16.40;96934.00;;;;5066957;28;20211;-84
2022/11/25 11:53:21;;;;;;;5.40;2.03;;;;;17.30;96939.00;;;;5059583;28;20203;-85
2022/11/25 11:56:16;;;;;;;2.97;1.90;;;;;17.60;96951.00;;;;5064907;28;20689;-85
2022/11/25 11:59:45;;;;;;;2.60;1.10;;;;;17.50;96947.00;;;;5079502;28;20701;-84
2022/11/25 12:02:51;;;;;;;4.90;1.73;;;;;16.30;96933.00;;;;5055872;28;20658;-86
2022/11/25 12:05:40;;;;;;;3.43;1.40;;;;;17.90;96935.00;;;;5049770;28;20582;-85
2022/11/25 12:08:34;;;;;;;2.97;1.23;;;;;18.80;96935.00;;;;5048982;28;20663;-85
2022/11/25 12:11:27;;;;;;;2.40;1.53;;;;;18.20;96940.00;;;;5049460;28;20201;-85
2022/11/25 12:14:36;;;;;;;1.43;1.33;;;;;19.40;96933.00;;;;5049976;28;20205;-86
2022/11/25 12:17:29;;;;;;;3.97;1.33;;;;;20.50;96934.00;;;;5060386;28;20203;-84
2022/11/25 12:20:23;;;;;;;3.30;1.50;;;;;19.90;96930.00;;;;5055686;28;20252;-85
2022/11/25 12:23:17;;;;;;;2.80;1.40;;;;;20.90;96933.00;;;;5076440;28;20226;-84
2022/11/25 12:26:12;;;;;;;1.53;1.13;;;;;21.30;96949.00;;;;5074474;28;20294;-85
2022/11/25 12:29:05;;;;;;;2.30;1.40;;;;;20.70;96935.00;;;;5066975;28;20228;-85
2022/11/25 12:31:59;;;;;;;2.20;1.20;;;;;20.90;96938.00;;;;5069607;28;20684;-85
2022/11/25 12:34:53;;;;;;;2.40;1.43;;;;;21.00;96930.00;;;;5065246;28;20199;-86
2022/11/25 12:37:46;;;;;;;1.43;0.90;;;;;21.60;96938.00;;;;5062472;28;20242;-85
2022/11/25 12:40:40;;;;;;;1.67;1.10;;;;;21.80;96927.00;;;;5074554;28;20208;-86
2022/11/25 12:43:35;;;;;;;1.27;1.00;;;;;20.40;96928.00;;;;5073279;28;20257;-86
2022/11/25 12:46:28;;;;;;;2.43;1.20;;;;;19.70;96933.00;;;;5071476;28;20306;-85
2022/11/25 12:49:23;;;;;;;1.50;1.03;;;;;16.70;96921.00;;;;5085027;28;20234;-86
2022/11/25 12:52:27;;;;;;;1.30;0.70;;;;;17.20;96919.00;;;;5057883;28;20200;-86
2022/11/25 12:55:23;;;;;;;3.57;1.00;;;;;17.20;96918.00;;;;5076768;28;20291;-87
2022/11/25 12:58:34;;;;;;;1.00;0.90;;;;;16.60;96917.00;;;;5060341;28;20277;-85
2022/11/25 13:01:46;;;;;;;1.63;1.23;;;;;16.10;96904.00;;;;5048645;28;20251;-86
2022/11/25 13:04:55;;;;;;;3.43;1.43;;;;;16.30;96908.00;;;;5072172;28;20279;-86
2022/11/25 13:07:51;;;;;;;1.83;1.37;;;;;15.10;96909.00;;;;5076351;28;20940;-85
2022/11/25 13:10:48;;;;;;;2.28;1.27;;;;;15.30;96915.00;;;;5053481;28;20390;-85
2022/11/25 13:13:46;;;;;;;2.13;1.30;;;;;15.80;96920.00;;;;5053251;28;20411;-86
2022/11/25 13:16:36;;;;;;;2.05;1.30;;;;;16.20;96913.00;;;;5073195;28;20753;-85
2022/11/25 13:19:25;;;;;;;1.85;1.10;;;;;16.00;96913.00;;;;5062795;28;20410;-86
2022/11/25 13:22:28;;;;;;;;;;;;;17.00;96911.00;;;;5076075;28;20041;-85
2022/11/25 13:25:21;;;;;;;;;;;;;16.10;96912.00;;;;5071646;28;20063;-85
2022/11/25 13:28:25;;;;;;;;;;;;;16.10;96912.00;;;;5070221;28;20278;-86
2022/11/25 13:31:19;;;;;;;;;;;;;15.80;96920.00;;;;5084702;28;19920;-85